sensor_id;sensor_type;location;lat;lon;timestamp;pressure;altitude;pressure_sealevel;temperature;humidity
76637;BME280;65532;52.124;5.480;2023-02-13T00:02:23;103812.25;;;6.13;88.31
76637;BME280;65532;52.124;5.480;2023-02-13T00:04:49;103808.81;;;6.11;88.29
76637;BME280;65532;52.124;5.480;2023-02-13T00:07:16;103800.88;;;6.09;88.75
76637;BME280;65532;52.124;5.480;2023-02-13T00:09:42;103806.28;;;6.09;88.42
76637;BME280;65532;52.124;5.480;2023-02-13T00:12:08;103810.78;;;6.09;88.62
76637;BME280;65532;52.124;5.480;2023-02-13T00:14:37;103802.13;;;6.05;88.04
76637;BME280;65532;52.124;5.480;2023-02-13T00:17:04;103799.72;;;6.02;87.53
76637;BME280;65532;52.124;5.480;2023-02-13T00:19:31;103798.00;;;6.01;87.92
76637;BME280;65532;52.124;5.480;2023-02-13T00:21:58;103795.19;;;6.03;88.02
76637;BME280;65532;52.124;5.480;2023-02-13T00:24:24;103794.34;;;6.02;88.07
76637;BME280;65532;52.124;5.480;2023-02-13T00:26:51;103800.16;;;6.07;87.68
76637;BME280;65532;52.124;5.480;2023-02-13T00:29:17;103796.38;;;6.10;87.66
76637;BME280;65532;52.124;5.480;2023-02-13T00:31:44;103790.97;;;6.10;87.74
76637;BME280;65532;52.124;5.480;2023-02-13T00:34:12;103788.16;;;6.11;87.65
76637;BME280;65532;52.124;5.480;2023-02-13T00:36:39;103789.88;;;6.12;87.80
76637;BME280;65532;52.124;5.480;2023-02-13T00:39:05;103787.03;;;6.14;87.77
76637;BME280;65532;52.124;5.480;2023-02-13T00:41:32;103778.53;;;6.09;88.10
76637;BME280;65532;52.124;5.480;2023-02-13T00:43:58;103785.28;;;6.03;88.08
76637;BME280;65532;52.124;5.480;2023-02-13T00:46:24;103788.31;;;5.98;87.48
76637;BME280;65532;52.124;5.480;2023-02-13T00:48:51;103785.78;;;5.97;87.74
76637;BME280;65532;52.124;5.480;2023-02-13T00:51:18;103781.25;;;5.97;88.28
76637;BME280;65532;52.124;5.480;2023-02-13T00:53:44;103776.97;;;5.95;87.98
76637;BME280;65532;52.124;5.480;2023-02-13T00:56:13;103780.66;;;5.94;88.09
76637;BME280;65532;52.124;5.480;2023-02-13T00:58:43;103774.56;;;5.92;88.13
76637;BME280;65532;52.124;5.480;2023-02-13T01:01:09;103775.41;;;5.92;88.02
76637;BME280;65532;52.124;5.480;2023-02-13T01:03:36;103775.53;;;5.91;87.92
76637;BME280;65532;52.124;5.480;2023-02-13T01:06:03;103782.38;;;5.95;87.85
76637;BME280;65532;52.124;5.480;2023-02-13T01:08:30;103780.16;;;6.00;87.65
76637;BME280;65532;52.124;5.480;2023-02-13T01:10:56;103779.91;;;6.03;87.22
76637;BME280;65532;52.124;5.480;2023-02-13T01:13:23;103786.00;;;6.05;87.35
76637;BME280;65532;52.124;5.480;2023-02-13T01:15:52;103781.34;;;6.07;87.47
76637;BME280;65532;52.124;5.480;2023-02-13T01:18:19;103784.16;;;6.06;87.70
76637;BME280;65532;52.124;5.480;2023-02-13T01:21:01;103784.06;;;5.96;87.69
76637;BME280;65532;52.124;5.480;2023-02-13T01:23:30;103783.59;;;5.91;87.61
76637;BME280;65532;52.124;5.480;2023-02-13T01:25:58;103785.44;;;5.90;87.26
76637;BME280;65532;52.124;5.480;2023-02-13T01:28:25;103786.53;;;5.88;87.21
76637;BME280;65532;52.124;5.480;2023-02-13T01:30:56;103776.97;;;5.84;86.99
76637;BME280;65532;52.124;5.480;2023-02-13T01:33:25;103772.59;;;5.83;86.71
76637;BME280;65532;52.124;5.480;2023-02-13T01:35:52;103773.44;;;5.83;86.43
76637;BME280;65532;52.124;5.480;2023-02-13T01:38:19;103765.50;;;5.82;86.55
76637;BME280;65532;52.124;5.480;2023-02-13T01:40:53;103771.88;;;5.81;86.13
76637;BME280;65532;52.124;5.480;2023-02-13T01:43:19;103772.84;;;5.80;86.06
76637;BME280;65532;52.124;5.480;2023-02-13T01:45:52;103772.50;;;5.84;85.87
76637;BME280;65532;52.124;5.480;2023-02-13T01:48:22;103769.53;;;5.87;86.17
76637;BME280;65532;52.124;5.480;2023-02-13T01:51:03;103770.66;;;5.85;86.16
76637;BME280;65532;52.124;5.480;2023-02-13T01:53:57;103761.84;;;5.83;86.33
76637;BME280;65532;52.124;5.480;2023-02-13T01:56:30;103762.09;;;5.80;85.91
76637;BME280;65532;52.124;5.480;2023-02-13T01:59:06;103763.53;;;5.84;85.53
76637;BME280;65532;52.124;5.480;2023-02-13T02:01:35;103766.00;;;5.87;85.74
76637;BME280;65532;52.124;5.480;2023-02-13T02:04:10;103764.16;;;5.87;86.41
76637;BME280;65532;52.124;5.480;2023-02-13T02:06:41;103750.72;;;5.87;86.02
76637;BME280;65532;52.124;5.480;2023-02-13T02:09:14;103751.06;;;5.83;86.22
76637;BME280;65532;52.124;5.480;2023-02-13T02:14:34;103754.03;;;5.80;86.19
76637;BME280;65532;52.124;5.480;2023-02-13T02:17:04;103762.94;;;5.80;86.40
76637;BME280;65532;52.124;5.480;2023-02-13T02:19:47;103751.34;;;5.80;86.43
76637;BME280;65532;52.124;5.480;2023-02-13T02:25:34;103748.41;;;5.83;86.37
76637;BME280;65532;52.124;5.480;2023-02-13T02:42:34;103740.69;;;5.89;86.60
76637;BME280;65532;52.124;5.480;2023-02-13T02:47:26;103740.84;;;5.77;85.67
76637;BME280;65532;52.124;5.480;2023-02-13T02:50:22;103748.19;;;5.75;85.85
76637;BME280;65532;52.124;5.480;2023-02-13T02:58:34;103742.53;;;5.89;85.71
76637;BME280;65532;52.124;5.480;2023-02-13T03:01:26;103744.97;;;5.92;85.85
76637;BME280;65532;52.124;5.480;2023-02-13T03:04:23;103736.44;;;5.87;85.75
76637;BME280;65532;52.124;5.480;2023-02-13T03:07:14;103745.25;;;5.78;85.05
76637;BME280;65532;52.124;5.480;2023-02-13T03:09:46;103727.53;;;5.75;84.65
76637;BME280;65532;52.124;5.480;2023-02-13T03:12:37;103733.25;;;5.82;84.85
76637;BME280;65532;52.124;5.480;2023-02-13T03:15:25;103740.59;;;5.80;85.46
76637;BME280;65532;52.124;5.480;2023-02-13T03:17:53;103745.69;;;5.83;85.49
76637;BME280;65532;52.124;5.480;2023-02-13T03:21:01;103736.91;;;5.81;85.48
76637;BME280;65532;52.124;5.480;2023-02-13T03:23:57;103742.28;;;5.81;84.95
76637;BME280;65532;52.124;5.480;2023-02-13T03:29:32;103741.44;;;5.91;84.11
76637;BME280;65532;52.124;5.480;2023-02-13T03:32:34;103745.22;;;5.89;84.40
76637;BME280;65532;52.124;5.480;2023-02-13T03:38:28;103742.75;;;5.97;85.16
76637;BME280;65532;52.124;5.480;2023-02-13T03:41:04;103737.38;;;5.97;85.44
76637;BME280;65532;52.124;5.480;2023-02-13T03:46:37;103741.75;;;5.98;85.51
76637;BME280;65532;52.124;5.480;2023-02-13T03:49:06;103743.00;;;5.94;86.08
76637;BME280;65532;52.124;5.480;2023-02-13T03:51:58;103739.25;;;5.85;85.71
76637;BME280;65532;52.124;5.480;2023-02-13T03:54:33;103739.59;;;5.92;85.53
76637;BME280;65532;52.124;5.480;2023-02-13T03:57:22;103735.66;;;5.96;85.54
76637;BME280;65532;52.124;5.480;2023-02-13T04:00:10;103737.13;;;6.00;85.91
76637;BME280;65532;52.124;5.480;2023-02-13T04:03:10;103747.63;;;6.03;85.56
76637;BME280;65532;52.124;5.480;2023-02-13T04:05:42;103731.50;;;6.03;85.55
76637;BME280;65532;52.124;5.480;2023-02-13T04:08:10;103738.56;;;6.04;85.04
76637;BME280;65532;52.124;5.480;2023-02-13T04:10:45;103735.03;;;6.04;84.94
76637;BME280;65532;52.124;5.480;2023-02-13T04:13:22;103735.03;;;6.04;85.13
76637;BME280;65532;52.124;5.480;2023-02-13T04:16:00;103736.03;;;6.03;85.47
76637;BME280;65532;52.124;5.480;2023-02-13T04:18:30;103738.00;;;6.00;85.71
76637;BME280;65532;52.124;5.480;2023-02-13T04:21:04;103735.66;;;5.96;85.99
76637;BME280;65532;52.124;5.480;2023-02-13T04:23:31;103738.63;;;5.93;85.86
76637;BME280;65532;52.124;5.480;2023-02-13T04:25:59;103737.91;;;5.91;85.86
76637;BME280;65532;52.124;5.480;2023-02-13T04:28:27;103736.19;;;5.90;86.06
76637;BME280;65532;52.124;5.480;2023-02-13T04:30:54;103736.56;;;5.85;85.72
76637;BME280;65532;52.124;5.480;2023-02-13T04:33:21;103728.59;;;5.84;85.58
76637;BME280;65532;52.124;5.480;2023-02-13T04:35:48;103727.88;;;5.82;85.59
76637;BME280;65532;52.124;5.480;2023-02-13T04:38:14;103742.28;;;5.81;85.18
76637;BME280;65532;52.124;5.480;2023-02-13T04:40:41;103736.91;;;5.81;84.96
76637;BME280;65532;52.124;5.480;2023-02-13T04:43:07;103738.38;;;5.85;84.98
76637;BME280;65532;52.124;5.480;2023-02-13T04:45:34;103735.22;;;5.91;84.96
76637;BME280;65532;52.124;5.480;2023-02-13T04:48:00;103731.41;;;5.93;85.34
76637;BME280;65532;52.124;5.480;2023-02-13T04:50:26;103734.69;;;5.97;85.47
76637;BME280;65532;52.124;5.480;2023-02-13T04:52:54;103725.63;;;5.98;85.86
76637;BME280;65532;52.124;5.480;2023-02-13T04:55:25;103725.50;;;5.99;86.20
76637;BME280;65532;52.124;5.480;2023-02-13T04:57:52;103720.88;;;6.02;86.05
76637;BME280;65532;52.124;5.480;2023-02-13T05:00:21;103726.13;;;6.03;86.75
76637;BME280;65532;52.124;5.480;2023-02-13T05:02:47;103730.66;;;6.03;86.52
76637;BME280;65532;52.124;5.480;2023-02-13T05:05:14;103724.66;;;5.99;86.48
76637;BME280;65532;52.124;5.480;2023-02-13T05:07:41;103715.84;;;5.97;86.45
76637;BME280;65532;52.124;5.480;2023-02-13T05:10:09;103716.13;;;5.94;86.03
76637;BME280;65532;52.124;5.480;2023-02-13T05:12:36;103709.75;;;5.95;85.78
76637;BME280;65532;52.124;5.480;2023-02-13T05:15:03;103705.09;;;5.97;85.85
76637;BME280;65532;52.124;5.480;2023-02-13T05:17:30;103711.47;;;5.96;85.96
76637;BME280;65532;52.124;5.480;2023-02-13T05:19:57;103708.50;;;5.99;85.75
76637;BME280;65532;52.124;5.480;2023-02-13T05:22:25;103710.25;;;6.00;85.95
76637;BME280;65532;52.124;5.480;2023-02-13T05:25:10;103709.38;;;5.99;86.08
76637;BME280;65532;52.124;5.480;2023-02-13T05:27:36;103704.88;;;6.00;86.20
76637;BME280;65532;52.124;5.480;2023-02-13T05:30:03;103697.88;;;5.97;85.91
76637;BME280;65532;52.124;5.480;2023-02-13T05:32:30;103701.97;;;5.92;85.78
76637;BME280;65532;52.124;5.480;2023-02-13T05:34:56;103700.13;;;5.92;85.46
76637;BME280;65532;52.124;5.480;2023-02-13T05:37:22;103705.63;;;5.91;85.23
76637;BME280;65532;52.124;5.480;2023-02-13T05:39:49;103700.00;;;5.94;84.88
76637;BME280;65532;52.124;5.480;2023-02-13T05:42:15;103706.81;;;5.98;85.07
76637;BME280;65532;52.124;5.480;2023-02-13T05:44:42;103701.69;;;5.95;85.25
76637;BME280;65532;52.124;5.480;2023-02-13T05:47:08;103703.66;;;5.93;85.11
76637;BME280;65532;52.124;5.480;2023-02-13T05:49:35;103702.81;;;5.92;84.93
76637;BME280;65532;52.124;5.480;2023-02-13T05:52:01;103705.25;;;5.95;84.52
76637;BME280;65532;52.124;5.480;2023-02-13T05:54:27;103702.41;;;5.97;84.23
76637;BME280;65532;52.124;5.480;2023-02-13T05:56:54;103708.50;;;5.99;84.64
76637;BME280;65532;52.124;5.480;2023-02-13T05:59:20;103705.72;;;6.00;85.17
76637;BME280;65532;52.124;5.480;2023-02-13T06:01:49;103699.50;;;6.00;84.70
76637;BME280;65532;52.124;5.480;2023-02-13T06:04:15;103701.44;;;5.98;84.44
76637;BME280;65532;52.124;5.480;2023-02-13T06:06:42;103700.56;;;5.97;84.38
76637;BME280;65532;52.124;5.480;2023-02-13T06:09:10;103704.88;;;5.89;84.01
76637;BME280;65532;52.124;5.480;2023-02-13T06:11:36;103706.97;;;5.85;83.01
76637;BME280;65532;52.124;5.480;2023-02-13T06:14:03;103704.41;;;5.84;82.51
76637;BME280;65532;52.124;5.480;2023-02-13T06:16:29;103704.28;;;5.85;82.45
76637;BME280;65532;52.124;5.480;2023-02-13T06:18:59;103704.88;;;5.89;81.56
76637;BME280;65532;52.124;5.480;2023-02-13T06:21:26;103709.03;;;5.93;82.23
76637;BME280;65532;52.124;5.480;2023-02-13T06:23:52;103703.66;;;5.93;82.05
76637;BME280;65532;52.124;5.480;2023-02-13T06:26:19;103704.53;;;5.93;82.56
76637;BME280;65532;52.124;5.480;2023-02-13T06:28:45;103708.19;;;5.92;82.28
76637;BME280;65532;52.124;5.480;2023-02-13T06:31:12;103710.88;;;5.92;82.33
76637;BME280;65532;52.124;5.480;2023-02-13T06:33:38;103707.47;;;5.90;82.45
76637;BME280;65532;52.124;5.480;2023-02-13T06:36:05;103712.09;;;5.88;81.03
76637;BME280;65532;52.124;5.480;2023-02-13T06:38:32;103712.94;;;5.89;80.92
76637;BME280;65532;52.124;5.480;2023-02-13T06:40:59;103715.28;;;5.93;80.70
76637;BME280;65532;52.124;5.480;2023-02-13T06:43:27;103718.41;;;5.98;81.14
76637;BME280;65532;52.124;5.480;2023-02-13T06:45:53;103717.19;;;6.03;81.75
76637;BME280;65532;52.124;5.480;2023-02-13T06:48:20;103725.13;;;6.04;81.58
76637;BME280;65532;52.124;5.480;2023-02-13T06:50:47;103725.72;;;6.08;81.91
76637;BME280;65532;52.124;5.480;2023-02-13T06:53:13;103716.66;;;6.09;82.32
76637;BME280;65532;52.124;5.480;2023-02-13T06:55:40;103721.59;;;6.04;82.06
76637;BME280;65532;52.124;5.480;2023-02-13T06:58:06;103723.28;;;6.05;81.78
76637;BME280;65532;52.124;5.480;2023-02-13T07:00:32;103723.28;;;6.05;81.82
76637;BME280;65532;52.124;5.480;2023-02-13T07:03:04;103728.94;;;6.02;81.62
76637;BME280;65532;52.124;5.480;2023-02-13T07:05:32;103730.66;;;6.03;81.48
76637;BME280;65532;52.124;5.480;2023-02-13T07:07:58;103738.19;;;6.09;81.24
76637;BME280;65532;52.124;5.480;2023-02-13T07:10:25;103731.56;;;6.13;81.40
76637;BME280;65532;52.124;5.480;2023-02-13T07:12:51;103730.44;;;6.15;81.21
76637;BME280;65532;52.124;5.480;2023-02-13T07:15:32;103737.53;;;6.16;81.07
76637;BME280;65532;52.124;5.480;2023-02-13T07:17:58;103734.72;;;6.18;81.04
76637;BME280;65532;52.124;5.480;2023-02-13T07:20:26;103738.63;;;6.14;81.15
76637;BME280;65532;52.124;5.480;2023-02-13T07:22:57;103741.47;;;6.12;80.79
76637;BME280;65532;52.124;5.480;2023-02-13T07:25:23;103736.56;;;6.17;80.59
76637;BME280;65532;52.124;5.480;2023-02-13T07:27:49;103742.94;;;6.16;80.85
76637;BME280;65532;52.124;5.480;2023-02-13T07:30:16;103741.19;;;6.15;80.82
76637;BME280;65532;52.124;5.480;2023-02-13T07:32:43;103735.81;;;6.15;79.67
76637;BME280;65532;52.124;5.480;2023-02-13T07:35:09;103734.09;;;6.14;79.05
76637;BME280;65532;52.124;5.480;2023-02-13T07:37:36;103730.56;;;6.14;78.82
76637;BME280;65532;52.124;5.480;2023-02-13T07:40:03;103739.25;;;6.17;78.46
76637;BME280;65532;52.124;5.480;2023-02-13T07:42:32;103728.22;;;6.20;78.66
76637;BME280;65532;52.124;5.480;2023-02-13T07:45:00;103729.66;;;6.24;78.74
76637;BME280;65532;52.124;5.480;2023-02-13T07:47:26;103732.22;;;6.26;78.67
76637;BME280;65532;52.124;5.480;2023-02-13T07:49:53;103735.63;;;6.28;78.77
76637;BME280;65532;52.124;5.480;2023-02-13T07:52:20;103738.19;;;6.29;78.57
76637;BME280;65532;52.124;5.480;2023-02-13T07:54:46;103729.88;;;6.33;79.13
76637;BME280;65532;52.124;5.480;2023-02-13T07:57:14;103747.31;;;6.38;78.51
76637;BME280;65532;52.124;5.480;2023-02-13T07:59:42;103745.94;;;6.44;78.70
76637;BME280;65532;52.124;5.480;2023-02-13T08:02:12;103750.19;;;6.46;79.32
76637;BME280;65532;52.124;5.480;2023-02-13T08:04:40;103747.13;;;6.51;79.41
76637;BME280;65532;52.124;5.480;2023-02-13T08:07:07;103750.53;;;6.53;79.38
76637;BME280;65532;52.124;5.480;2023-02-13T08:09:33;103752.94;;;6.56;79.61
76637;BME280;65532;52.124;5.480;2023-02-13T08:12:18;103758.78;;;6.61;79.86
76637;BME280;65532;52.124;5.480;2023-02-13T08:14:45;103756.84;;;6.63;80.25
76637;BME280;65532;52.124;5.480;2023-02-13T08:17:11;103766.19;;;6.69;80.14
76637;BME280;65532;52.124;5.480;2023-02-13T08:19:38;103768.34;;;6.75;80.14
76637;BME280;65532;52.124;5.480;2023-02-13T08:22:05;103770.53;;;6.81;80.92
76637;BME280;65532;52.124;5.480;2023-02-13T08:24:32;103767.00;;;6.90;81.24
76637;BME280;65532;52.124;5.480;2023-02-13T08:26:58;103764.38;;;7.00;81.57
76637;BME280;65532;52.124;5.480;2023-02-13T08:29:25;103762.69;;;7.08;81.70
76637;BME280;65532;52.124;5.480;2023-02-13T08:31:51;103765.72;;;7.15;82.17
76637;BME280;65532;52.124;5.480;2023-02-13T08:34:18;103768.69;;;7.21;82.82
76637;BME280;65532;52.124;5.480;2023-02-13T08:36:44;103760.94;;;7.28;83.54
76637;BME280;65532;52.124;5.480;2023-02-13T08:39:11;103769.91;;;7.38;83.68
76637;BME280;65532;52.124;5.480;2023-02-13T08:41:37;103772.19;;;7.43;84.37
76637;BME280;65532;52.124;5.480;2023-02-13T08:44:04;103763.97;;;7.44;84.23
76637;BME280;65532;52.124;5.480;2023-02-13T08:46:30;103764.53;;;7.48;85.54
76637;BME280;65532;52.124;5.480;2023-02-13T08:48:57;103764.25;;;7.51;85.69
76637;BME280;65532;52.124;5.480;2023-02-13T08:51:24;103765.09;;;7.51;85.96
76637;BME280;65532;52.124;5.480;2023-02-13T08:53:50;103764.69;;;7.56;86.04
76637;BME280;65532;52.124;5.480;2023-02-13T08:56:17;103767.69;;;7.63;86.38
76637;BME280;65532;52.124;5.480;2023-02-13T08:58:47;103774.22;;;7.70;86.71
76637;BME280;65532;52.124;5.480;2023-02-13T09:01:13;103766.28;;;7.88;87.02
76637;BME280;65532;52.124;5.480;2023-02-13T09:03:40;103758.91;;;7.99;86.98
76637;BME280;65532;52.124;5.480;2023-02-13T09:06:06;103760.06;;;8.06;87.23
76637;BME280;65532;52.124;5.480;2023-02-13T09:08:36;103761.03;;;8.25;87.36
76637;BME280;65532;52.124;5.480;2023-02-13T09:11:03;103760.06;;;8.26;88.57
76637;BME280;65532;52.124;5.480;2023-02-13T09:13:32;103755.50;;;8.36;87.51
76637;BME280;65532;52.124;5.480;2023-02-13T09:16:00;103756.13;;;8.77;89.28
76637;BME280;65532;52.124;5.480;2023-02-13T09:18:27;103759.22;;;8.91;89.98
76637;BME280;65532;52.124;5.480;2023-02-13T09:21:17;103757.97;;;8.76;89.77
76637;BME280;65532;52.124;5.480;2023-02-13T09:23:43;103758.78;;;9.23;89.43
76637;BME280;65532;52.124;5.480;2023-02-13T09:26:12;103762.69;;;9.11;89.78
76637;BME280;65532;52.124;5.480;2023-02-13T09:28:39;103760.25;;;8.81;90.01
76637;BME280;65532;52.124;5.480;2023-02-13T09:31:13;103762.28;;;8.59;89.71
76637;BME280;65532;52.124;5.480;2023-02-13T09:33:42;103761.91;;;8.54;89.58
76637;BME280;65532;52.124;5.480;2023-02-13T09:36:14;103758.34;;;8.54;90.26
76637;BME280;65532;52.124;5.480;2023-02-13T09:38:41;103758.34;;;8.54;90.01
76637;BME280;65532;52.124;5.480;2023-02-13T09:41:22;103759.34;;;8.53;89.94
76637;BME280;65532;52.124;5.480;2023-02-13T09:44:12;103758.91;;;8.48;90.09
76637;BME280;65532;52.124;5.480;2023-02-13T09:50:06;103755.19;;;8.58;90.17
76637;BME280;65532;52.124;5.480;2023-02-13T09:52:37;103756.69;;;8.80;89.66
76637;BME280;65532;52.124;5.480;2023-02-13T09:55:34;103761.25;;;8.80;90.22
76637;BME280;65532;52.124;5.480;2023-02-13T09:58:12;103755.59;;;8.73;89.88
76637;BME280;65532;52.124;5.480;2023-02-13T10:00:43;103749.44;;;8.81;89.82
76637;BME280;65532;52.124;5.480;2023-02-13T10:03:20;103756.50;;;9.01;89.71
76637;BME280;65532;52.124;5.480;2023-02-13T10:06:07;103757.75;;;8.97;89.89
76637;BME280;65532;52.124;5.480;2023-02-13T10:14:41;103766.63;;;8.89;89.83
76637;BME280;65532;52.124;5.480;2023-02-13T10:17:16;103755.06;;;8.97;89.88
76637;BME280;65532;52.124;5.480;2023-02-13T10:19:49;103764.50;;;9.20;89.19
76637;BME280;65532;52.124;5.480;2023-02-13T10:22:48;103757.38;;;9.19;89.41
76637;BME280;65532;52.124;5.480;2023-02-13T10:25:23;103761.41;;;9.15;89.30
76637;BME280;65532;52.124;5.480;2023-02-13T10:27:54;103758.09;;;9.49;89.27
76637;BME280;65532;52.124;5.480;2023-02-13T10:30:29;103757.25;;;9.48;88.75
76637;BME280;65532;52.124;5.480;2023-02-13T10:36:10;103751.47;;;10.14;87.48
76637;BME280;65532;52.124;5.480;2023-02-13T10:38:55;103753.41;;;10.22;87.01
76637;BME280;65532;52.124;5.480;2023-02-13T10:41:24;103748.75;;;10.32;87.14
76637;BME280;65532;52.124;5.480;2023-02-13T10:46:48;103745.41;;;10.20;86.33
76637;BME280;65532;52.124;5.480;2023-02-13T10:52:12;103742.97;;;10.27;86.35
76637;BME280;65532;52.124;5.480;2023-02-13T10:57:22;103736.25;;;10.39;85.08
76637;BME280;65532;52.124;5.480;2023-02-13T11:02:47;103733.53;;;9.96;86.79
76637;BME280;65532;52.124;5.480;2023-02-13T11:05:20;103738.41;;;10.10;86.21
76637;BME280;65532;52.124;5.480;2023-02-13T11:07:48;103734.38;;;10.32;86.01
76637;BME280;65532;52.124;5.480;2023-02-13T11:10:19;103727.56;;;10.10;85.83
76637;BME280;65532;52.124;5.480;2023-02-13T11:12:46;103723.69;;;10.30;86.16
76637;BME280;65532;52.124;5.480;2023-02-13T11:17:49;103720.41;;;10.44;84.58
76637;BME280;65532;52.124;5.480;2023-02-13T11:22:54;103715.50;;;10.22;84.69
76637;BME280;65532;52.124;5.480;2023-02-13T11:25:24;103709.34;;;10.20;85.28
76637;BME280;65532;52.124;5.480;2023-02-13T11:28:07;103712.34;;;10.27;84.90
76637;BME280;65532;52.124;5.480;2023-02-13T11:30:36;103706.38;;;10.49;84.66
76637;BME280;65532;52.124;5.480;2023-02-13T11:33:17;103713.06;;;10.37;83.98
76637;BME280;65532;52.124;5.480;2023-02-13T11:35:47;103715.44;;;10.58;84.03
76637;BME280;65532;52.124;5.480;2023-02-13T11:40:49;103703.06;;;10.89;82.10
76637;BME280;65532;52.124;5.480;2023-02-13T11:43:28;103699.97;;;10.84;81.52
76637;BME280;65532;52.124;5.480;2023-02-13T11:46:21;103705.13;;;10.69;82.39
76637;BME280;65532;52.124;5.480;2023-02-13T11:48:57;103693.75;;;10.92;81.51
76637;BME280;65532;52.124;5.480;2023-02-13T11:51:48;103689.63;;;10.88;82.18
76637;BME280;65532;52.124;5.480;2023-02-13T11:54:22;103694.59;;;10.92;82.07
76637;BME280;65532;52.124;5.480;2023-02-13T11:56:52;103692.22;;;10.89;82.08
76637;BME280;65532;52.124;5.480;2023-02-13T11:59:42;103690.69;;;10.95;82.04
76637;BME280;65532;52.124;5.480;2023-02-13T12:05:20;103673.34;;;11.22;80.72
76637;BME280;65532;52.124;5.480;2023-02-13T12:07:47;103674.53;;;11.27;81.00
76637;BME280;65532;52.124;5.480;2023-02-13T12:13:11;103671.56;;;10.96;80.29
76637;BME280;65532;52.124;5.480;2023-02-13T12:15:39;103668.09;;;10.78;81.56
76637;BME280;65532;52.124;5.480;2023-02-13T12:18:24;103666.81;;;10.90;80.27
76637;BME280;65532;52.124;5.480;2023-02-13T12:21:08;103663.13;;;11.07;80.24
76637;BME280;65532;52.124;5.480;2023-02-13T12:26:32;103677.00;;;11.04;78.95
76637;BME280;65532;52.124;5.480;2023-02-13T12:36:00;103657.03;;;11.14;79.69
76637;BME280;65532;52.124;5.480;2023-02-13T12:51:45;103644.34;;;11.14;79.48
76637;BME280;65532;52.124;5.480;2023-02-13T12:57:32;103653.38;;;11.39;78.63
76637;BME280;65532;52.124;5.480;2023-02-13T13:08:52;103635.56;;;11.45;77.39
76637;BME280;65532;52.124;5.480;2023-02-13T13:13:52;103625.25;;;11.40;77.96
76637;BME280;65532;52.124;5.480;2023-02-13T13:16:30;103618.81;;;11.57;77.83
76637;BME280;65532;52.124;5.480;2023-02-13T13:22:02;103613.56;;;11.88;75.91
76637;BME280;65532;52.124;5.480;2023-02-13T13:25:03;103613.38;;;12.06;75.54
76637;BME280;65532;52.124;5.480;2023-02-13T13:27:40;103608.47;;;11.93;75.10
76637;BME280;65532;52.124;5.480;2023-02-13T13:30:27;103596.09;;;11.91;75.52
76637;BME280;65532;52.124;5.480;2023-02-13T13:33:13;103595.94;;;11.84;76.09
76637;BME280;65532;52.124;5.480;2023-02-13T13:35:44;103597.78;;;11.92;75.62
76637;BME280;65532;52.124;5.480;2023-02-13T13:46:59;103584.88;;;11.69;75.85
76637;BME280;65532;52.124;5.480;2023-02-13T13:49:49;103583.16;;;11.77;75.29
76637;BME280;65532;52.124;5.480;2023-02-13T13:52:30;103582.00;;;11.79;74.75
76637;BME280;65532;52.124;5.480;2023-02-13T13:54:59;103584.88;;;11.78;74.99
76637;BME280;65532;52.124;5.480;2023-02-13T14:02:43;103589.78;;;11.74;75.28
76637;BME280;65532;52.124;5.480;2023-02-13T14:05:56;103573.69;;;11.81;75.21
76637;BME280;65532;52.124;5.480;2023-02-13T14:11:02;103569.09;;;11.81;74.80
76637;BME280;65532;52.124;5.480;2023-02-13T14:13:33;103568.59;;;11.94;74.06
76637;BME280;65532;52.124;5.480;2023-02-13T14:16:00;103567.72;;;12.02;73.83
76637;BME280;65532;52.124;5.480;2023-02-13T14:18:28;103562.63;;;12.07;73.98
76637;BME280;65532;52.124;5.480;2023-02-13T14:20:58;103562.81;;;11.97;74.16
76637;BME280;65532;52.124;5.480;2023-02-13T14:31:25;103558.88;;;12.08;73.50
76637;BME280;65532;52.124;5.480;2023-02-13T14:34:00;103555.31;;;12.15;72.96
76637;BME280;65532;52.124;5.480;2023-02-13T14:36:33;103557.38;;;12.05;73.58
76637;BME280;65532;52.124;5.480;2023-02-13T14:39:22;103554.50;;;11.82;74.09
76637;BME280;65532;52.124;5.480;2023-02-13T14:44:29;103549.75;;;11.76;74.24
76637;BME280;65532;52.124;5.480;2023-02-13T14:46:59;103555.34;;;11.66;74.64
76637;BME280;65532;52.124;5.480;2023-02-13T14:49:29;103555.03;;;11.69;74.50
76637;BME280;65532;52.124;5.480;2023-02-13T14:51:59;103551.66;;;11.59;74.31
76637;BME280;65532;52.124;5.480;2023-02-13T14:54:33;103549.06;;;11.66;74.96
76637;BME280;65532;52.124;5.480;2023-02-13T14:57:22;103548.22;;;11.65;74.81
76637;BME280;65532;52.124;5.480;2023-02-13T14:59:57;103541.63;;;11.68;74.97
76637;BME280;65532;52.124;5.480;2023-02-13T15:02:32;103536.72;;;11.80;74.84
76637;BME280;65532;52.124;5.480;2023-02-13T15:05:03;103534.66;;;11.74;74.74
76637;BME280;65532;52.124;5.480;2023-02-13T15:07:34;103537.72;;;11.70;74.57
76637;BME280;65532;52.124;5.480;2023-02-13T15:10:27;103539.41;;;11.63;75.06
76637;BME280;65532;52.124;5.480;2023-02-13T15:12:57;103538.06;;;11.59;75.61
76637;BME280;65532;52.124;5.480;2023-02-13T15:15:33;103543.00;;;11.48;75.15
76637;BME280;65532;52.124;5.480;2023-02-13T15:18:03;103545.19;;;11.44;75.97
76637;BME280;65532;52.124;5.480;2023-02-13T15:20:34;103541.66;;;11.44;75.91
76637;BME280;65532;52.124;5.480;2023-02-13T15:23:03;103548.75;;;11.45;76.08
76637;BME280;65532;52.124;5.480;2023-02-13T15:25:34;103547.75;;;11.46;76.17
76637;BME280;65532;52.124;5.480;2023-02-13T15:28:04;103545.91;;;11.38;76.32
76637;BME280;65532;52.124;5.480;2023-02-13T15:30:33;103543.50;;;11.35;76.90
76637;BME280;65532;52.124;5.480;2023-02-13T15:33:25;103540.78;;;11.35;76.33
76637;BME280;65532;52.124;5.480;2023-02-13T15:35:57;103536.38;;;11.34;76.45
76637;BME280;65532;52.124;5.480;2023-02-13T15:38:27;103531.63;;;11.20;76.69
76637;BME280;65532;52.124;5.480;2023-02-13T15:40:59;103538.41;;;11.16;77.32
76637;BME280;65532;52.124;5.480;2023-02-13T15:43:34;103535.72;;;11.07;77.54
76637;BME280;65532;52.124;5.480;2023-02-13T15:46:05;103527.75;;;11.06;77.58